Time;durP1;ratioP1;P1;durP2;ratioP2;P2;SDS_P1;SDS_P2;PMS_P1;PMS_P2;Temp;Humidity;BMP_temperature;BMP_pressure;BME280_temperature;BME280_humidity;BME280_pressure;Samples;Min_cycle;Max_cycle;Signal;HPM_P1;HPM_P2
2022/05/28 00:01:42;;;;;;;12.87;5.23;;;11.40;99.90;;;;;;5049654;28;20192;-57
2022/05/28 00:04:15;;;;;;;12.60;5.10;;;11.50;99.90;;;;;;5049233;28;20314;-57
2022/05/28 00:06:45;;;;;;;15.03;5.00;;;11.50;99.90;;;;;;5043524;28;20250;-57
2022/05/28 00:09:13;;;;;;;12.40;5.47;;;11.50;99.90;;;;;;5050396;28;20659;-57
2022/05/28 00:11:42;;;;;;;12.47;5.13;;;11.40;99.90;;;;;;5050654;28;20213;-57
2022/05/28 00:14:11;;;;;;;17.33;5.40;;;11.40;99.90;;;;;;5051822;28;20228;-57
2022/05/28 00:16:41;;;;;;;14.63;5.60;;;11.40;99.90;;;;;;5049613;28;20283;-57
2022/05/28 00:19:11;;;;;;;10.77;5.33;;;11.40;99.90;;;;;;5049818;28;20663;-57
2022/05/28 00:21:40;;;;;;;7.63;5.20;;;11.30;99.90;;;;;;5050901;28;20243;-57
2022/05/28 00:24:09;;;;;;;14.23;5.73;;;11.30;99.90;;;;;;5082878;28;20204;-57
2022/05/28 00:26:37;;;;;;;14.93;5.83;;;11.30;99.90;;;;;;5049642;28;20292;-57
2022/05/28 00:29:06;;;;;;;10.53;5.43;;;11.30;99.90;;;;;;5052894;28;20668;-57
2022/05/28 00:31:37;;;;;;;13.80;5.50;;;11.30;99.90;;;;;;5050424;28;20209;-57
2022/05/28 00:34:06;;;;;;;16.00;5.73;;;11.30;99.90;;;;;;5050668;28;20272;-57
2022/05/28 00:36:36;;;;;;;11.30;5.80;;;11.30;99.90;;;;;;5048963;28;20258;-57
2022/05/28 00:39:05;;;;;;;16.73;6.17;;;11.20;99.90;;;;;;5084878;28;20228;-57
2022/05/28 00:41:34;;;;;;;12.97;5.47;;;11.30;99.90;;;;;;5050945;28;20228;-57
2022/05/28 00:44:05;;;;;;;12.20;5.33;;;11.20;99.90;;;;;;5083915;28;20193;-57
2022/05/28 00:46:34;;;;;;;11.73;5.20;;;11.20;99.90;;;;;;5050939;28;20189;-57
2022/05/28 00:49:07;;;;;;;18.07;5.37;;;11.10;99.90;;;;;;5049148;28;20204;-57
2022/05/28 00:51:42;;;;;;;12.50;5.57;;;11.10;99.90;;;;;;5081355;28;20212;-57
2022/05/28 00:54:11;;;;;;;18.20;5.90;;;11.10;99.90;;;;;;5084839;28;20223;-57
2022/05/28 00:56:40;;;;;;;11.93;5.20;;;11.10;99.90;;;;;;5047465;28;20220;-57
2022/05/28 00:59:09;;;;;;;13.43;5.43;;;11.10;99.90;;;;;;5050742;28;20258;-57
2022/05/28 01:01:42;;;;;;;11.23;5.10;;;11.10;99.90;;;;;;5048286;28;20189;-57
2022/05/28 01:04:16;;;;;;;10.57;4.97;;;11.00;99.90;;;;;;5049591;28;20203;-57
2022/05/28 01:06:52;;;;;;;13.67;5.07;;;11.00;99.90;;;;;;5082665;28;20228;-57
2022/05/28 01:09:29;;;;;;;14.53;5.03;;;10.90;99.90;;;;;;5052426;28;20284;-57
2022/05/28 01:12:10;;;;;;;10.57;4.90;;;11.00;99.90;;;;;;5081344;28;20219;-57
2022/05/28 01:14:47;;;;;;;13.07;4.77;;;10.90;99.90;;;;;;5049773;28;20235;-57
2022/05/28 01:17:21;;;;;;;14.30;4.90;;;10.90;99.90;;;;;;5048385;28;20207;-58
2022/05/28 01:20:02;;;;;;;11.60;4.80;;;10.80;99.90;;;;;;5050902;28;20200;-57
2022/05/28 01:22:45;;;;;;;11.60;5.10;;;10.80;99.90;;;;;;5049329;28;20230;-58
2022/05/28 01:25:20;;;;;;;12.57;4.63;;;10.70;99.90;;;;;;5048904;28;20207;-57
2022/05/28 01:27:53;;;;;;;15.90;5.50;;;10.70;99.90;;;;;;5043389;28;20211;-57
2022/05/28 01:30:22;;;;;;;11.27;5.40;;;10.60;99.90;;;;;;5062438;28;20209;-57
2022/05/28 01:32:53;;;;;;;21.50;5.90;;;10.50;99.90;;;;;;5048598;28;20306;-57
2022/05/28 01:35:23;;;;;;;13.47;4.90;;;10.50;99.90;;;;;;5048525;28;20642;-57
2022/05/28 01:37:52;;;;;;;11.97;5.27;;;10.40;99.90;;;;;;5049397;28;20222;-58
2022/05/28 01:40:22;;;;;;;9.73;4.80;;;10.40;99.90;;;;;;5082529;28;20188;-57
2022/05/28 01:42:56;;;;;;;11.10;5.00;;;10.40;99.90;;;;;;5049207;28;20196;-57
2022/05/28 01:45:27;;;;;;;11.80;5.03;;;10.40;99.90;;;;;;5050668;28;20185;-57
2022/05/28 01:48:01;;;;;;;14.17;5.30;;;10.40;99.90;;;;;;5048140;28;20213;-57
2022/05/28 01:50:32;;;;;;;13.97;5.23;;;10.40;99.90;;;;;;5049349;28;20197;-58
2022/05/28 01:53:03;;;;;;;12.90;5.03;;;10.40;99.90;;;;;;5045515;28;20274;-57
2022/05/28 01:55:38;;;;;;;10.90;5.27;;;10.40;99.90;;;;;;5051036;28;20197;-57
2022/05/28 01:58:09;;;;;;;19.67;5.10;;;10.40;99.90;;;;;;5039334;28;20525;-57
2022/05/28 02:00:37;;;;;;;10.07;4.83;;;10.40;99.90;;;;;;5049530;28;20281;-57
2022/05/28 02:03:06;;;;;;;13.03;5.90;;;10.40;99.90;;;;;;5045010;28;20758;-59
2022/05/28 02:05:35;;;;;;;12.87;5.60;;;10.50;99.90;;;;;;5051022;28;20711;-57
2022/05/28 02:08:03;;;;;;;14.73;5.30;;;10.50;99.90;;;;;;5040366;28;20532;-57
2022/05/28 02:10:32;;;;;;;11.40;4.73;;;10.40;99.90;;;;;;5052508;28;20228;-57
2022/05/28 02:13:17;;;;;;;16.10;5.60;;;10.50;99.90;;;;;;5048378;28;20254;-57
2022/05/28 02:15:52;;;;;;;12.37;4.93;;;10.50;99.90;;;;;;5049351;28;20627;-57
2022/05/28 02:18:31;;;;;;;12.30;5.10;;;10.50;99.90;;;;;;5046791;28;20201;-57
2022/05/28 02:21:05;;;;;;;11.57;5.10;;;10.40;99.90;;;;;;5075589;28;20271;-57
2022/05/28 02:23:40;;;;;;;16.10;4.50;;;10.40;99.90;;;;;;5048869;28;20188;-57
2022/05/28 02:26:13;;;;;;;14.63;5.03;;;10.40;99.90;;;;;;5046008;28;20184;-57
2022/05/28 02:28:45;;;;;;;14.27;4.87;;;10.30;99.90;;;;;;5047153;28;20196;-57
2022/05/28 02:31:16;;;;;;;14.00;5.00;;;10.30;99.90;;;;;;5081592;28;20189;-57
2022/05/28 02:33:45;;;;;;;17.13;5.50;;;10.20;99.90;;;;;;5063374;28;20227;-58
2022/05/28 02:36:15;;;;;;;13.23;4.93;;;10.20;99.90;;;;;;5044459;28;20239;-57
2022/05/28 02:38:45;;;;;;;12.43;5.03;;;10.10;99.90;;;;;;5049521;28;20219;-58
2022/05/28 02:41:14;;;;;;;13.13;4.90;;;10.10;99.90;;;;;;5045505;28;20199;-57
2022/05/28 02:43:44;;;;;;;13.83;4.83;;;10.10;99.90;;;;;;5048923;28;20193;-57
2022/05/28 02:46:12;;;;;;;9.67;4.93;;;10.10;99.90;;;;;;5047878;28;20213;-57
2022/05/28 02:48:42;;;;;;;12.17;5.10;;;10.20;99.90;;;;;;5049804;28;20239;-57
2022/05/28 02:51:13;;;;;;;11.87;5.50;;;10.10;99.90;;;;;;5056969;28;20215;-57
2022/05/28 02:53:42;;;;;;;10.10;4.90;;;10.10;99.90;;;;;;5050166;28;20323;-57
2022/05/28 02:56:11;;;;;;;12.17;5.67;;;10.00;99.90;;;;;;5058487;28;20207;-56
2022/05/28 02:58:41;;;;;;;15.03;5.17;;;9.90;99.90;;;;;;5046878;28;20207;-57
2022/05/28 03:01:24;;;;;;;14.53;5.00;;;9.90;99.90;;;;;;5050003;28;20250;-57
2022/05/28 03:03:52;;;;;;;12.40;5.87;;;9.90;99.90;;;;;;5044501;28;20644;-57
2022/05/28 03:06:21;;;;;;;12.33;5.70;;;9.90;99.90;;;;;;5061501;28;20185;-57
2022/05/28 03:08:50;;;;;;;11.00;5.10;;;9.90;99.90;;;;;;5049712;28;20197;-56
2022/05/28 03:11:18;;;;;;;12.90;5.10;;;9.80;99.90;;;;;;5046994;28;20212;-57
2022/05/28 03:13:47;;;;;;;15.27;5.63;;;9.90;99.90;;;;;;5080750;28;20221;-57
2022/05/28 03:16:16;;;;;;;13.37;5.70;;;9.90;99.90;;;;;;5036458;28;20204;-56
2022/05/28 03:18:46;;;;;;;17.33;5.97;;;9.80;99.90;;;;;;5048142;28;20649;-56
2022/05/28 03:21:15;;;;;;;15.73;5.70;;;9.80;99.90;;;;;;5050115;28;20960;-57
2022/05/28 03:23:47;;;;;;;17.10;6.27;;;9.80;99.90;;;;;;5051637;28;20603;-57
2022/05/28 03:26:18;;;;;;;19.90;6.77;;;9.80;99.90;;;;;;5051699;28;20209;-56
2022/05/28 03:28:48;;;;;;;13.77;6.73;;;9.80;99.90;;;;;;5050650;28;20638;-57
2022/05/28 03:31:17;;;;;;;17.37;6.93;;;9.80;99.90;;;;;;5050598;28;20193;-57
2022/05/28 03:33:46;;;;;;;18.03;7.27;;;9.80;99.90;;;;;;5047829;28;20704;-57
2022/05/28 03:36:15;;;;;;;19.47;7.20;;;9.90;99.90;;;;;;5052942;28;20714;-56
2022/05/28 03:38:44;;;;;;;21.70;6.70;;;9.90;99.90;;;;;;5051328;28;20664;-57
2022/05/28 03:41:13;;;;;;;22.30;7.43;;;9.90;99.90;;;;;;5056205;28;20189;-57
2022/05/28 03:43:42;;;;;;;20.70;7.83;;;10.00;99.90;;;;;;5052727;28;20201;-57
2022/05/28 03:46:21;;;;;;;25.13;7.70;;;10.00;99.90;;;;;;5052905;28;20209;-57
2022/05/28 03:48:53;;;;;;;17.97;7.07;;;10.00;99.90;;;;;;5050362;28;20204;-57
2022/05/28 03:51:22;;;;;;;29.50;7.10;;;10.00;99.90;;;;;;5052411;28;20200;-57
2022/05/28 03:53:50;;;;;;;19.10;7.67;;;10.10;99.90;;;;;;5084260;28;20255;-57
2022/05/28 03:56:19;;;;;;;19.47;7.27;;;10.10;99.90;;;;;;5053191;28;20224;-57
2022/05/28 03:58:50;;;;;;;16.10;7.17;;;10.10;99.90;;;;;;5052185;28;20224;-57
2022/05/28 04:01:19;;;;;;;17.07;7.50;;;10.10;99.90;;;;;;5043218;28;20596;-57
2022/05/28 04:04:26;;;;;;;16.67;7.47;;;10.10;99.90;;;;;;5049963;28;20207;-57
2022/05/28 04:07:32;;;;;;;22.50;7.47;;;10.10;99.90;;;;;;5046073;28;20246;-57
2022/05/28 04:10:01;;;;;;;22.83;7.67;;;10.20;99.90;;;;;;5084040;28;20217;-57
2022/05/28 04:12:30;;;;;;;21.07;7.30;;;10.20;99.90;;;;;;5074024;28;20338;-56
2022/05/28 04:14:58;;;;;;;14.80;6.97;;;10.20;99.90;;;;;;5053146;28;20193;-57
2022/05/28 04:17:26;;;;;;;14.43;7.40;;;10.30;99.90;;;;;;5062716;28;20193;-57
2022/05/28 04:19:56;;;;;;;16.40;6.97;;;10.30;99.90;;;;;;5038830;28;20200;-57
2022/05/28 04:22:25;;;;;;;17.47;7.07;;;10.30;99.90;;;;;;5050170;28;20198;-57
2022/05/28 04:24:54;;;;;;;20.90;7.43;;;10.40;99.90;;;;;;5050718;28;20211;-57
2022/05/28 04:27:22;;;;;;;17.63;7.97;;;10.40;99.90;;;;;;5050380;28;20232;-57
2022/05/28 04:29:50;;;;;;;21.80;8.20;;;10.40;99.90;;;;;;5051909;28;20303;-57
2022/05/28 04:32:18;;;;;;;17.70;7.97;;;10.40;99.90;;;;;;5048872;28;20214;-57
2022/05/28 04:34:46;;;;;;;28.17;8.10;;;10.50;99.90;;;;;;5048483;28;20203;-57
2022/05/28 04:37:16;;;;;;;22.20;8.83;;;10.50;99.90;;;;;;5050216;28;20197;-57
2022/05/28 04:39:45;;;;;;;19.40;7.70;;;10.50;99.90;;;;;;5044705;28;20222;-57
2022/05/28 04:42:13;;;;;;;19.57;7.30;;;10.60;99.90;;;;;;5054949;28;20620;-57
2022/05/28 04:44:41;;;;;;;15.47;7.53;;;10.60;99.90;;;;;;5049528;28;20189;-56
2022/05/28 04:47:13;;;;;;;18.03;7.83;;;10.70;99.90;;;;;;5046724;28;20193;-57
2022/05/28 04:49:41;;;;;;;19.37;7.50;;;10.70;99.90;;;;;;5051267;28;20189;-57
2022/05/28 04:52:10;;;;;;;14.90;7.70;;;10.80;99.90;;;;;;5051236;28;20961;-56
2022/05/28 04:54:39;;;;;;;13.67;7.13;;;10.90;99.90;;;;;;5049924;28;20220;-57
2022/05/28 04:57:07;;;;;;;15.67;7.13;;;10.90;99.90;;;;;;5049201;28;20193;-57
2022/05/28 04:59:36;;;;;;;15.13;7.03;;;11.00;99.90;;;;;;5083807;28;20270;-57
2022/05/28 05:02:06;;;;;;;23.10;6.83;;;11.10;99.90;;;;;;5047801;28;20196;-57
2022/05/28 05:04:34;;;;;;;18.67;7.13;;;11.20;99.90;;;;;;5051024;28;20192;-57
2022/05/28 05:07:03;;;;;;;22.40;7.27;;;11.30;99.90;;;;;;5067660;28;20201;-56
2022/05/28 05:09:31;;;;;;;16.67;6.80;;;11.30;99.90;;;;;;5050374;28;20199;-57
2022/05/28 05:12:01;;;;;;;17.97;6.80;;;11.50;99.90;;;;;;5048734;28;20199;-57
2022/05/28 05:14:29;;;;;;;27.30;6.80;;;11.50;99.90;;;;;;5047402;28;20308;-56
2022/05/28 05:16:58;;;;;;;14.03;6.60;;;11.60;99.90;;;;;;5047758;28;20188;-57
2022/05/28 05:19:26;;;;;;;22.23;7.30;;;11.60;99.90;;;;;;5050193;28;20205;-57
2022/05/28 05:21:55;;;;;;;17.37;6.07;;;11.70;99.90;;;;;;5050664;28;20663;-56
2022/05/28 05:24:24;;;;;;;17.37;6.67;;;11.70;99.90;;;;;;5051016;28;20196;-54
2022/05/28 05:26:52;;;;;;;17.97;6.17;;;11.80;99.90;;;;;;5051089;28;20200;-57
2022/05/28 05:29:21;;;;;;;8.47;5.77;;;12.00;99.90;;;;;;5051170;28;20560;-57
2022/05/28 05:31:50;;;;;;;13.83;5.17;;;12.00;99.90;;;;;;5056613;28;20206;-56
2022/05/28 05:34:18;;;;;;;12.50;5.03;;;12.10;99.90;;;;;;5051373;28;20754;-57
2022/05/28 05:36:46;;;;;;;15.73;5.07;;;12.20;99.90;;;;;;5049702;28;20239;-56
2022/05/28 05:39:15;;;;;;;18.97;5.53;;;12.30;99.90;;;;;;5049538;28;20203;-56
2022/05/28 05:41:44;;;;;;;14.27;5.30;;;12.40;99.90;;;;;;5051068;28;20200;-56
2022/05/28 05:44:13;;;;;;;10.77;5.00;;;12.50;99.90;;;;;;5047831;28;20193;-56
2022/05/28 05:46:44;;;;;;;11.80;5.27;;;12.60;99.90;;;;;;5080449;28;20196;-57
2022/05/28 05:49:12;;;;;;;13.77;5.50;;;12.70;99.90;;;;;;5046830;28;20201;-57
2022/05/28 05:51:44;;;;;;;11.47;5.07;;;12.80;99.90;;;;;;5051018;28;20196;-57
2022/05/28 05:54:13;;;;;;;13.63;4.90;;;12.80;99.90;;;;;;5050751;28;20214;-57
2022/05/28 05:56:41;;;;;;;15.87;5.07;;;12.90;99.90;;;;;;5051225;28;20192;-57
2022/05/28 05:59:10;;;;;;;16.60;5.37;;;13.00;99.90;;;;;;5051089;28;20211;-57
2022/05/28 06:01:38;;;;;;;10.83;5.03;;;13.10;99.90;;;;;;5079499;28;20607;-57
2022/05/28 06:04:08;;;;;;;12.93;4.70;;;13.40;99.90;;;;;;5047826;28;20187;-57
2022/05/28 06:06:37;;;;;;;14.60;4.37;;;13.60;99.90;;;;;;5049136;28;20199;-57
2022/05/28 06:09:05;;;;;;;10.37;4.50;;;13.70;99.90;;;;;;5051310;28;20296;-57
2022/05/28 06:11:34;;;;;;;13.67;4.50;;;13.80;99.90;;;;;;5052760;28;20220;-57
2022/05/28 06:14:03;;;;;;;10.67;4.00;;;13.80;99.90;;;;;;5047519;28;20372;-57
2022/05/28 06:16:31;;;;;;;9.50;4.60;;;13.90;99.90;;;;;;5048002;28;20307;-57
2022/05/28 06:19:01;;;;;;;12.60;4.57;;;13.90;99.90;;;;;;5039137;28;20211;-57
2022/05/28 06:21:39;;;;;;;10.67;4.70;;;13.90;99.90;;;;;;5038058;28;20269;-56
2022/05/28 06:24:08;;;;;;;14.30;4.30;;;14.00;99.90;;;;;;5049283;28;20655;-57
2022/05/28 06:26:37;;;;;;;13.23;4.10;;;14.20;99.90;;;;;;5050384;28;20196;-57
2022/05/28 06:29:05;;;;;;;11.50;4.00;;;14.30;99.90;;;;;;5049396;28;20208;-57
2022/05/28 06:31:34;;;;;;;12.77;3.67;;;14.40;99.90;;;;;;5048598;28;20254;-57
2022/05/28 06:34:02;;;;;;;12.00;3.43;;;14.40;99.90;;;;;;5047185;28;20574;-57
2022/05/28 06:36:32;;;;;;;17.07;3.40;;;14.60;99.90;;;;;;5048041;28;20231;-57
2022/05/28 06:39:00;;;;;;;14.07;4.00;;;14.70;99.90;;;;;;5075520;28;20196;-57
2022/05/28 06:41:28;;;;;;;15.83;4.03;;;14.80;99.90;;;;;;5049646;28;20212;-57
2022/05/28 06:43:56;;;;;;;9.60;2.63;;;14.90;99.90;;;;;;5056352;28;20196;-57
2022/05/28 06:46:25;;;;;;;12.00;3.17;;;14.90;99.90;;;;;;5043906;28;20205;-57
2022/05/28 06:48:53;;;;;;;8.33;2.80;;;14.90;99.90;;;;;;5050524;28;20197;-57
2022/05/28 06:51:21;;;;;;;10.63;3.10;;;15.00;99.90;;;;;;5038461;28;20636;-57
2022/05/28 06:53:52;;;;;;;10.77;2.83;;;15.00;99.90;;;;;;5074250;28;20208;-57
2022/05/28 06:56:20;;;;;;;9.90;3.30;;;15.20;99.90;;;;;;5045796;28;20292;-57
2022/05/28 06:58:48;;;;;;;7.93;2.53;;;15.30;99.90;;;;;;5047164;28;20276;-57
2022/05/28 07:01:18;;;;;;;8.50;2.40;;;15.50;99.90;;;;;;5052011;28;20879;-57
2022/05/28 07:03:47;;;;;;;10.27;2.93;;;15.80;99.90;;;;;;5049080;28;20193;-57
2022/05/28 07:06:16;;;;;;;4.30;2.60;;;16.10;99.90;;;;;;5050612;28;20201;-57
2022/05/28 07:08:45;;;;;;;6.93;2.50;;;16.40;99.90;;;;;;5052350;28;20247;-58
2022/05/28 07:11:15;;;;;;;10.83;2.83;;;16.60;99.90;;;;;;5051567;28;20217;-57
2022/05/28 07:13:43;;;;;;;7.57;2.77;;;16.80;99.90;;;;;;5047666;28;20202;-57
2022/05/28 07:16:12;;;;;;;7.47;2.50;;;17.00;99.90;;;;;;5043847;28;21640;-57
2022/05/28 07:18:42;;;;;;;8.23;2.63;;;17.40;99.90;;;;;;5049712;28;20191;-57
2022/05/28 07:21:11;;;;;;;9.07;2.67;;;17.60;99.90;;;;;;5047209;28;20224;-57
2022/05/28 07:23:40;;;;;;;9.97;2.67;;;17.60;99.90;;;;;;5048150;28;20201;-57
2022/05/28 07:26:10;;;;;;;14.07;2.70;;;17.50;99.90;;;;;;5050786;28;20754;-57
2022/05/28 07:28:42;;;;;;;9.30;2.73;;;17.60;99.90;;;;;;5044935;28;20766;-57
2022/05/28 07:31:12;;;;;;;10.17;2.70;;;17.20;99.90;;;;;;5041582;28;20211;-57
2022/05/28 07:33:46;;;;;;;12.30;3.27;;;16.80;99.90;;;;;;5050239;28;20218;-57
2022/05/28 07:36:17;;;;;;;15.67;2.80;;;16.60;99.90;;;;;;5040700;28;20239;-58
2022/05/28 07:38:46;;;;;;;5.37;1.97;;;16.50;99.90;;;;;;5055042;28;20559;-58
2022/05/28 07:41:17;;;;;;;6.23;2.53;;;16.50;99.90;;;;;;5040117;28;20205;-57
2022/05/28 07:43:47;;;;;;;8.30;2.20;;;16.50;99.90;;;;;;5044884;28;20211;-58
2022/05/28 07:46:19;;;;;;;10.03;2.23;;;16.40;99.90;;;;;;5046379;28;20198;-62
2022/05/28 07:48:49;;;;;;;5.40;2.10;;;16.20;99.90;;;;;;5041803;28;20221;-58
2022/05/28 07:51:18;;;;;;;5.93;2.30;;;16.10;99.90;;;;;;5032799;28;20296;-58
2022/05/28 07:53:46;;;;;;;5.27;2.13;;;16.00;99.90;;;;;;5048618;28;20287;-58
2022/05/28 07:56:15;;;;;;;6.33;1.90;;;16.00;99.90;;;;;;5050366;28;20212;-57
2022/05/28 07:58:45;;;;;;;5.30;1.97;;;15.90;99.90;;;;;;5045617;28;20665;-58
2022/05/28 08:01:21;;;;;;;3.13;1.80;;;16.00;99.90;;;;;;5041966;28;20637;-58
2022/05/28 08:03:50;;;;;;;4.90;1.80;;;16.10;99.90;;;;;;5046566;28;20215;-58
2022/05/28 08:06:19;;;;;;;10.23;2.33;;;16.00;99.90;;;;;;5045808;28;20194;-58
2022/05/28 08:08:48;;;;;;;4.97;1.87;;;15.90;99.90;;;;;;5048813;28;20205;-58
2022/05/28 08:11:17;;;;;;;3.00;1.40;;;15.80;99.90;;;;;;5043802;28;20217;-58
2022/05/28 08:13:46;;;;;;;4.33;1.93;;;15.70;99.90;;;;;;5048178;28;20204;-58
2022/05/28 08:16:15;;;;;;;2.90;1.80;;;15.70;99.90;;;;;;5041365;28;20217;-57
2022/05/28 08:18:44;;;;;;;5.77;1.70;;;15.70;99.90;;;;;;5049725;28;20196;-58
2022/05/28 08:23:59;;;;;;;4.70;1.30;;;16.10;99.90;;;;;;5049373;28;20194;-58
2022/05/28 08:26:27;;;;;;;2.10;1.37;;;16.70;99.90;;;;;;5048623;28;20200;-57
2022/05/28 08:28:57;;;;;;;5.93;1.57;;;17.20;99.90;;;;;;5049527;28;20592;-57
2022/05/28 08:31:26;;;;;;;5.70;1.43;;;17.80;99.90;;;;;;5050287;28;20201;-58
2022/05/28 08:33:54;;;;;;;3.70;1.27;;;18.20;99.90;;;;;;5047269;28;20380;-58
2022/05/28 08:36:24;;;;;;;3.07;1.10;;;18.10;99.90;;;;;;5049303;28;20247;-58
2022/05/28 08:38:52;;;;;;;5.63;1.23;;;17.90;99.90;;;;;;5044305;28;20721;-60
2022/05/28 08:41:23;;;;;;;2.50;1.10;;;17.70;99.90;;;;;;5050187;28;20189;-58
2022/05/28 08:44:11;;;;;;;8.60;1.77;;;17.90;99.90;;;;;;5050728;28;20193;-58
2022/05/28 08:46:39;;;;;;;3.50;1.37;;;17.90;99.90;;;;;;5049608;28;20188;-58
2022/05/28 08:49:11;;;;;;;4.17;1.30;;;17.80;99.90;;;;;;5045848;28;20197;-58
2022/05/28 08:51:46;;;;;;;4.73;1.40;;;17.90;99.90;;;;;;5048517;28;20194;-58
2022/05/28 08:54:25;;;;;;;2.50;1.30;;;17.80;99.90;;;;;;5048775;28;20271;-58
2022/05/28 08:56:58;;;;;;;3.63;1.40;;;17.70;99.90;;;;;;5050079;28;20216;-58
2022/05/28 08:59:32;;;;;;;4.50;1.70;;;17.70;99.90;;;;;;5049435;28;20903;-58
2022/05/28 09:02:07;;;;;;;2.50;1.40;;;17.70;99.90;;;;;;5080051;28;20787;-58
2022/05/28 09:04:41;;;;;;;5.27;1.80;;;17.80;99.90;;;;;;5049581;28;20181;-58
2022/05/28 09:07:13;;;;;;;2.17;1.60;;;17.70;99.90;;;;;;5064742;28;20185;-58
2022/05/28 09:09:44;;;;;;;2.83;1.30;;;17.90;99.90;;;;;;5049754;28;20689;-58
2022/05/28 09:12:18;;;;;;;2.70;1.20;;;18.70;99.90;;;;;;5047839;28;20199;-58
2022/05/28 09:14:48;;;;;;;1.83;1.17;;;19.40;99.90;;;;;;5048907;28;20632;-58
2022/05/28 09:17:26;;;;;;;2.27;1.23;;;19.50;99.90;;;;;;5051673;28;20181;-58
2022/05/28 09:19:56;;;;;;;5.73;1.20;;;19.60;99.90;;;;;;5062416;28;20192;-58
2022/05/28 09:22:26;;;;;;;2.70;1.47;;;19.30;99.90;;;;;;5042849;28;20206;-58
2022/05/28 09:24:54;;;;;;;1.63;1.20;;;19.40;99.90;;;;;;5048774;28;20846;-58
2022/05/28 09:27:37;;;;;;;3.90;1.60;;;20.00;99.90;;;;;;5051965;28;20190;-58
2022/05/28 09:30:24;;;;;;;1.83;1.00;;;20.60;99.90;;;;;;5046767;28;20554;-58
2022/05/28 09:33:19;;;;;;;3.83;1.13;;;20.60;99.90;;;;;;5049129;28;20201;-58
2022/05/28 09:36:00;;;;;;;1.57;1.13;;;20.00;99.90;;;;;;5077622;28;20230;-59
2022/05/28 09:38:41;;;;;;;1.93;1.10;;;20.10;99.90;;;;;;5045598;28;20198;-58
2022/05/28 09:41:31;;;;;;;1.70;1.30;;;20.20;99.90;;;;;;5048737;28;20203;-58
2022/05/28 09:44:08;;;;;;;4.23;1.37;;;20.80;99.90;;;;;;5046214;28;20791;-58
2022/05/28 09:46:40;;;;;;;3.23;1.23;;;21.40;99.90;;;;;;5046669;28;20278;-58
2022/05/28 09:49:13;;;;;;;2.53;1.10;;;21.50;99.90;;;;;;5048731;28;20262;-58
2022/05/28 09:51:53;;;;;;;5.97;1.70;;;21.20;99.90;;;;;;5045999;28;20564;-58
2022/05/28 09:54:24;;;;;;;3.93;1.70;;;21.00;99.90;;;;;;5046213;28;20227;-58
2022/05/28 09:56:56;;;;;;;3.17;1.23;;;20.80;99.90;;;;;;5048936;28;20220;-58
2022/05/28 09:59:34;;;;;;;3.30;1.40;;;20.20;99.90;;;;;;5046943;28;20197;-58
2022/05/28 10:02:10;;;;;;;2.30;1.37;;;19.60;99.90;;;;;;5041109;28;20204;-58
2022/05/28 10:05:20;;;;;;;7.30;1.60;;;19.10;99.90;;;;;;5038853;28;20231;-57
2022/05/28 10:08:10;;;;;;;3.00;1.30;;;18.80;99.90;;;;;;5042809;28;20200;-57
2022/05/28 10:10:39;;;;;;;6.50;1.47;;;18.80;99.90;;;;;;5040968;28;20231;-57
2022/05/28 10:13:12;;;;;;;1.87;1.33;;;18.50;99.90;;;;;;5051175;28;21100;-57
2022/05/28 10:15:43;;;;;;;3.13;1.30;;;18.00;99.90;;;;;;5044866;28;20201;-57
2022/05/28 10:18:17;;;;;;;1.57;1.23;;;17.70;99.90;;;;;;5045641;28;21353;-57
2022/05/28 10:20:57;;;;;;;5.97;1.60;;;17.50;99.90;;;;;;5037582;28;20198;-58
2022/05/28 10:23:25;;;;;;;3.60;1.30;;;18.00;99.90;;;;;;5048716;28;20202;-57
2022/05/28 10:25:54;;;;;;;1.97;1.10;;;19.30;99.90;;;;;;5043996;28;20197;-58
2022/05/28 10:28:30;;;;;;;2.90;1.27;;;20.50;99.90;;;;;;5045025;28;20199;-58
2022/05/28 10:30:59;;;;;;;5.40;1.30;;;21.30;99.90;;;;;;5046748;28;20196;-57
2022/05/28 10:33:30;;;;;;;3.33;1.23;;;21.10;99.90;;;;;;5048709;28;20193;-58
2022/05/28 10:36:07;;;;;;;2.57;1.50;;;20.80;99.90;;;;;;5048003;28;20703;-57
2022/05/28 10:38:36;;;;;;;4.47;1.17;;;20.80;99.90;;;;;;5044705;28;20210;-58
2022/05/28 10:41:20;;;;;;;4.07;1.20;;;21.40;99.90;;;;;;5051056;28;20206;-58
2022/05/28 10:43:50;;;;;;;5.67;1.40;;;22.10;99.90;;;;;;5047508;28;20212;-57
2022/05/28 10:46:27;;;;;;;3.20;1.20;;;22.30;99.90;;;;;;5059904;28;22346;-58
2022/05/28 10:49:11;;;;;;;18.33;2.87;;;21.50;99.90;;;;;;5047743;28;20199;-57
2022/05/28 10:51:56;;;;;;;5.13;1.40;;;20.50;99.90;;;;;;5048752;28;20203;-58
2022/05/28 10:54:59;;;;;;;4.07;1.40;;;19.90;99.90;;;;;;5049271;28;20270;-58
2022/05/28 10:58:01;;;;;;;2.40;1.43;;;20.40;99.90;;;;;;5047227;28;20224;-58
2022/05/28 11:00:35;;;;;;;3.30;1.10;;;20.80;99.90;;;;;;5035754;28;20233;-58
2022/05/28 11:03:48;;;;;;;3.93;1.23;;;21.40;99.90;;;;;;5044639;28;20297;-58
2022/05/28 11:06:50;;;;;;;1.57;1.23;;;22.00;99.90;;;;;;5044988;28;20202;-58
2022/05/28 11:09:27;;;;;;;4.27;1.40;;;22.50;99.90;;;;;;5039013;28;20202;-58
2022/05/28 11:12:08;;;;;;;2.63;1.20;;;22.20;99.90;;;;;;5043437;28;20224;-58
2022/05/28 11:15:07;;;;;;;5.87;1.40;;;20.90;99.90;;;;;;5047077;28;20218;-58
2022/05/28 11:17:50;;;;;;;2.50;1.30;;;19.90;99.90;;;;;;5047922;28;20221;-58
2022/05/28 11:20:25;;;;;;;7.07;1.43;;;20.30;99.90;;;;;;5047925;28;20198;-58
2022/05/28 11:23:21;;;;;;;2.27;1.30;;;20.70;99.90;;;;;;5044830;28;20199;-58
2022/05/28 11:26:01;;;;;;;1.40;1.30;;;20.60;99.90;;;;;;5045929;28;20204;-58
2022/05/28 11:29:01;;;;;;;2.40;1.53;;;20.30;99.90;;;;;;5065259;28;21129;-58
2022/05/28 11:31:36;;;;;;;3.10;1.30;;;20.10;99.90;;;;;;5052696;28;20275;-57
2022/05/28 11:34:11;;;;;;;5.30;1.20;;;20.10;99.90;;;;;;5048761;28;20191;-58
2022/05/28 11:36:44;;;;;;;4.87;1.33;;;20.50;99.90;;;;;;5050930;28;20232;-58
2022/05/28 11:39:20;;;;;;;4.67;1.40;;;20.40;99.90;;;;;;5045467;28;20529;-57
2022/05/28 11:41:53;;;;;;;1.20;1.10;;;20.20;99.90;;;;;;5048337;28;20204;-58
2022/05/28 11:44:30;;;;;;;5.23;1.30;;;20.40;99.90;;;;;;5046078;28;20199;-58
2022/05/28 11:47:10;;;;;;;7.13;1.60;;;19.90;99.90;;;;;;5077321;28;20545;-58
2022/05/28 11:52:36;;;;;;;4.00;1.20;;;19.70;99.90;;;;;;5051049;28;20193;-58
2022/05/28 11:55:11;;;;;;;6.63;1.70;;;20.10;99.90;;;;;;5046637;28;20489;-58
2022/05/28 11:57:44;;;;;;;2.83;1.30;;;20.30;99.90;;;;;;5046991;28;20338;-58
2022/05/28 12:00:16;;;;;;;1.47;1.37;;;20.50;99.90;;;;;;5040744;28;20195;-58
2022/05/28 12:02:48;;;;;;;2.47;1.23;;;20.80;99.90;;;;;;5048087;28;20228;-58
2022/05/28 12:05:21;;;;;;;2.80;1.30;;;20.80;99.90;;;;;;5047977;28;20221;-58
2022/05/28 12:07:56;;;;;;;3.77;1.43;;;20.70;99.90;;;;;;5044479;28;20197;-58
2022/05/28 12:10:40;;;;;;;2.63;1.20;;;20.40;99.90;;;;;;5044509;28;20299;-58
2022/05/28 12:13:09;;;;;;;2.20;1.23;;;19.80;99.90;;;;;;5042715;28;20672;-57
2022/05/28 12:15:39;;;;;;;3.30;1.20;;;19.20;99.90;;;;;;5046795;28;20279;-58
2022/05/28 12:18:22;;;;;;;3.43;1.33;;;18.80;99.90;;;;;;5044189;28;20217;-58
2022/05/28 12:20:54;;;;;;;4.13;1.23;;;19.10;99.90;;;;;;5047666;28;20248;-58
2022/05/28 12:23:31;;;;;;;4.03;1.50;;;19.40;99.90;;;;;;5051902;28;20687;-58
2022/05/28 12:26:03;;;;;;;3.80;1.50;;;19.20;99.90;;;;;;5049567;28;20875;-58
2022/05/28 12:28:48;;;;;;;1.67;1.57;;;19.20;99.90;;;;;;5048703;28;20212;-58
2022/05/28 12:31:25;;;;;;;3.27;1.10;;;19.60;99.90;;;;;;5042519;28;20191;-58
2022/05/28 12:33:55;;;;;;;5.47;1.60;;;19.90;99.90;;;;;;5047485;28;20334;-58
2022/05/28 12:36:31;;;;;;;5.00;1.43;;;20.00;99.90;;;;;;5046272;28;20231;-58
2022/05/28 12:39:06;;;;;;;2.17;1.47;;;19.90;99.90;;;;;;5043811;28;20220;-57
2022/05/28 12:41:40;;;;;;;2.83;1.27;;;19.60;99.90;;;;;;5057073;28;20279;-58
2022/05/28 12:44:18;;;;;;;4.43;1.17;;;19.60;99.90;;;;;;5048388;28;20203;-58
2022/05/28 12:46:49;;;;;;;2.70;1.40;;;20.00;99.90;;;;;;5043320;28;20199;-58
2022/05/28 12:49:28;;;;;;;3.93;1.40;;;20.20;99.90;;;;;;5039450;28;20203;-59
2022/05/28 12:52:14;;;;;;;6.77;1.40;;;20.10;99.90;;;;;;5039356;28;20192;-58
2022/05/28 12:54:43;;;;;;;4.77;1.43;;;20.30;99.90;;;;;;5043032;28;20204;-58
2022/05/28 12:57:30;;;;;;;2.70;1.23;;;20.50;99.90;;;;;;5043980;28;20242;-58
2022/05/28 13:00:05;;;;;;;2.77;1.30;;;20.00;99.90;;;;;;5039619;28;20192;-58
2022/05/28 13:02:39;;;;;;;4.10;1.00;;;19.40;99.90;;;;;;5045650;28;20196;-59
2022/05/28 13:05:11;;;;;;;1.50;1.20;;;19.40;99.90;;;;;;5047740;28;20251;-58
2022/05/28 13:07:46;;;;;;;3.03;1.30;;;19.60;99.90;;;;;;5050610;28;20284;-59
2022/05/28 13:10:17;;;;;;;4.33;1.40;;;19.70;99.90;;;;;;5048435;28;20614;-59
2022/05/28 13:13:10;;;;;;;2.53;1.20;;;19.70;99.90;;;;;;5050236;28;20192;-58
2022/05/28 13:16:05;;;;;;;7.17;1.40;;;19.80;99.90;;;;;;5050690;28;20207;-58
2022/05/28 13:18:59;;;;;;;9.10;1.30;;;19.90;99.90;;;;;;5042712;28;20221;-58